createdAt,value
2022-11-23T00:01:28.986Z,92384.75
2022-11-23T00:16:30.696Z,92378.09
2022-11-23T00:31:32.147Z,92364.56
2022-11-23T00:46:33.612Z,92366.88
2022-11-23T01:01:37.102Z,92348.06
2022-11-23T01:16:40.170Z,92353.13
2022-11-23T01:31:46.161Z,92354.28
2022-11-23T01:46:48.377Z,92348.34
2022-11-23T02:01:49.834Z,92347.03
2022-11-23T02:16:51.528Z,92322.41
2022-11-23T02:31:53.292Z,92300.16
2022-11-23T02:46:54.984Z,92288.69
2022-11-23T03:01:56.553Z,92268.06
2022-11-23T03:16:58.433Z,92255.81
2022-11-23T03:31:59.915Z,92240.91
2022-11-23T03:47:01.427Z,92225.25
2022-11-23T04:02:02.887Z,92213.38
2022-11-23T04:17:04.403Z,92234.25
2022-11-23T04:32:05.845Z,92217.81
2022-11-23T04:47:07.794Z,92251.34
2022-11-23T05:02:10.279Z,92270.59
2022-11-23T05:17:11.812Z,92277.06
2022-11-23T05:32:13.271Z,92237.84
2022-11-23T05:47:14.728Z,92247.94
2022-11-23T06:02:16.277Z,92249.44
2022-11-23T06:17:17.744Z,92269.72
2022-11-23T06:32:19.249Z,92277.25
2022-11-23T06:47:25.714Z,92280.59
2022-11-23T07:02:28.035Z,92261.63
2022-11-23T07:17:29.549Z,92281.09
2022-11-23T07:32:31.005Z,92293.00
2022-11-23T07:47:32.659Z,92286.44
2022-11-23T08:02:34.131Z,92287.94
2022-11-23T08:17:35.626Z,92269.47
2022-11-23T08:32:37.124Z,92274.28
2022-11-23T08:47:38.578Z,92296.41
2022-11-23T09:02:40.027Z,92311.38
2022-11-23T09:17:41.599Z,92285.28
2022-11-23T09:32:43.220Z,92265.44
2022-11-23T09:48:03.293Z,92273.66
2022-11-23T10:03:04.833Z,92248.78
2022-11-23T10:18:24.949Z,92251.97
2022-11-23T10:33:31.555Z,92259.84
2022-11-23T10:48:34.275Z,92233.75
2022-11-23T11:03:35.807Z,92250.78
2022-11-23T11:18:38.031Z,92239.84
2022-11-23T11:33:46.569Z,92214.69
2022-11-23T11:49:00.268Z,92206.63
2022-11-23T12:04:07.061Z,92220.66
2022-11-23T12:19:18.490Z,92218.97
2022-11-23T12:34:19.953Z,92212.34
2022-11-23T12:49:27.376Z,92200.34
2022-11-23T13:04:47.652Z,92210.03
2022-11-23T13:20:09.241Z,92219.44
2022-11-23T13:35:13.793Z,92232.28
2022-11-23T13:50:19.313Z,92258.28
2022-11-23T14:05:39.569Z,92271.81
2022-11-23T14:20:41.192Z,92274.56
2022-11-23T14:35:49.229Z,92276.94
2022-11-23T14:51:00.512Z,92266.19
2022-11-23T15:06:14.455Z,92294.81
2022-11-23T15:21:27.692Z,92273.41
2022-11-23T15:36:38.309Z,92300.94
2022-11-23T15:51:41.011Z,92301.81
2022-11-23T16:06:47.070Z,92304.31
2022-11-23T16:21:48.958Z,92323.78
2022-11-23T16:36:50.732Z,92355.59
2022-11-23T16:51:57.019Z,92366.22
2022-11-23T17:06:58.953Z,92375.13
2022-11-23T17:22:00.434Z,92367.81
2022-11-23T17:37:02.003Z,92385.44
2022-11-23T17:52:03.619Z,92391.47
2022-11-23T18:07:05.534Z,92428.00
2022-11-23T18:22:07.207Z,92438.13
2022-11-23T18:37:08.673Z,92448.41
2022-11-23T18:52:13.966Z,92445.69
2022-11-23T19:07:15.689Z,92444.69
2022-11-23T19:22:17.228Z,92448.56
2022-11-23T19:37:18.769Z,92462.69
2022-11-23T19:52:20.434Z,92457.75
2022-11-23T20:07:22.110Z,92469.41
2022-11-23T20:22:23.709Z,92496.41
2022-11-23T20:37:25.191Z,92499.84
2022-11-23T20:52:26.716Z,92515.59
2022-11-23T21:07:28.320Z,92514.00
2022-11-23T21:22:29.818Z,92513.91
2022-11-23T21:37:31.796Z,92501.53
2022-11-23T21:52:33.238Z,92505.03
2022-11-23T22:16:19.388Z,92533.41
2022-11-23T22:31:22.097Z,92533.91
2022-11-23T22:46:24.364Z,92534.16
2022-11-23T23:01:29.771Z,92537.81
2022-11-23T23:16:31.457Z,92542.19
2022-11-23T23:31:33.132Z,92556.91
2022-11-23T23:46:34.698Z,92574.22
